sensor_id;sensor_type;location;lat;lon;timestamp;pressure;altitude;pressure_sealevel;temperature;humidity
21240;BME280;10778;48.962;9.018;2023-02-25T00:01:15;97978.28;;;4.13;91.28
21240;BME280;10778;48.962;9.018;2023-02-25T00:03:41;97982.47;;;4.04;91.19
21240;BME280;10778;48.962;9.018;2023-02-25T00:06:09;97978.66;;;4.08;90.36
21240;BME280;10778;48.962;9.018;2023-02-25T00:08:39;97983.06;;;4.08;89.99
21240;BME280;10778;48.962;9.018;2023-02-25T00:11:07;97987.91;;;4.12;90.32
21240;BME280;10778;48.962;9.018;2023-02-25T00:13:34;97991.66;;;4.08;91.13
21240;BME280;10778;48.962;9.018;2023-02-25T00:16:04;97989.06;;;4.08;91.51
21240;BME280;10778;48.962;9.018;2023-02-25T00:18:30;97978.09;;;4.05;90.35
21240;BME280;10778;48.962;9.018;2023-02-25T00:20:57;97985.50;;;3.88;91.34
21240;BME280;10778;48.962;9.018;2023-02-25T00:23:24;97979.06;;;4.04;90.65
21240;BME280;10778;48.962;9.018;2023-02-25T00:25:58;97984.13;;;4.05;89.97
21240;BME280;10778;48.962;9.018;2023-02-25T00:28:24;97988.03;;;3.99;90.13
21240;BME280;10778;48.962;9.018;2023-02-25T00:30:51;97983.88;;;4.08;89.61
21240;BME280;10778;48.962;9.018;2023-02-25T00:33:18;97977.53;;;4.01;90.24
21240;BME280;10778;48.962;9.018;2023-02-25T00:35:45;97992.19;;;4.02;90.51
21240;BME280;10778;48.962;9.018;2023-02-25T00:38:11;97993.38;;;3.98;91.04
21240;BME280;10778;48.962;9.018;2023-02-25T00:40:38;97990.31;;;3.93;91.33
21240;BME280;10778;48.962;9.018;2023-02-25T00:43:05;97999.66;;;3.95;92.22
21240;BME280;10778;48.962;9.018;2023-02-25T00:45:31;97997.88;;;3.96;90.70
21240;BME280;10778;48.962;9.018;2023-02-25T00:47:57;98004.03;;;3.95;91.53
21240;BME280;10778;48.962;9.018;2023-02-25T00:50:24;98010.41;;;3.91;89.85
21240;BME280;10778;48.962;9.018;2023-02-25T00:52:50;98009.97;;;3.86;88.62
21240;BME280;10778;48.962;9.018;2023-02-25T00:55:16;98009.03;;;3.75;89.65
21240;BME280;10778;48.962;9.018;2023-02-25T00:57:42;98006.31;;;3.77;89.44
21240;BME280;10778;48.962;9.018;2023-02-25T01:00:10;98000.44;;;3.75;90.71
21240;BME280;10778;48.962;9.018;2023-02-25T01:02:42;97999.38;;;3.66;90.90
21240;BME280;10778;48.962;9.018;2023-02-25T01:05:13;98002.59;;;3.58;92.01
21240;BME280;10778;48.962;9.018;2023-02-25T01:07:40;97996.53;;;3.58;92.39
21240;BME280;10778;48.962;9.018;2023-02-25T01:10:07;97998.69;;;3.64;92.51
21240;BME280;10778;48.962;9.018;2023-02-25T01:12:36;98000.78;;;3.59;92.54
21240;BME280;10778;48.962;9.018;2023-02-25T01:15:03;97998.69;;;3.52;93.97
21240;BME280;10778;48.962;9.018;2023-02-25T01:17:29;98004.34;;;3.58;93.57
21240;BME280;10778;48.962;9.018;2023-02-25T01:19:55;98004.22;;;3.59;93.56
21240;BME280;10778;48.962;9.018;2023-02-25T01:22:23;98005.28;;;3.56;93.04
21240;BME280;10778;48.962;9.018;2023-02-25T01:24:49;98012.03;;;3.59;92.50
21240;BME280;10778;48.962;9.018;2023-02-25T01:27:15;98018.88;;;3.60;91.49
21240;BME280;10778;48.962;9.018;2023-02-25T01:29:42;98017.84;;;3.51;93.19
21240;BME280;10778;48.962;9.018;2023-02-25T01:32:11;98015.34;;;3.61;92.47
21240;BME280;10778;48.962;9.018;2023-02-25T01:34:39;98022.78;;;3.66;90.42
21240;BME280;10778;48.962;9.018;2023-02-25T01:37:07;98026.44;;;3.63;90.75
21240;BME280;10778;48.962;9.018;2023-02-25T01:39:38;98028.34;;;3.73;90.01
21240;BME280;10778;48.962;9.018;2023-02-25T01:42:12;98034.84;;;3.67;88.76
21240;BME280;10778;48.962;9.018;2023-02-25T01:47:45;98035.78;;;3.66;88.51
21240;BME280;10778;48.962;9.018;2023-02-25T01:50:13;98032.00;;;3.70;88.47
21240;BME280;10778;48.962;9.018;2023-02-25T01:52:40;98036.38;;;3.69;89.14
21240;BME280;10778;48.962;9.018;2023-02-25T01:55:07;98035.44;;;3.70;88.17
21240;BME280;10778;48.962;9.018;2023-02-25T01:57:35;98031.66;;;3.75;88.57
21240;BME280;10778;48.962;9.018;2023-02-25T02:00:05;98029.88;;;3.64;89.07
21240;BME280;10778;48.962;9.018;2023-02-25T02:02:43;98019.94;;;3.69;88.26
21240;BME280;10778;48.962;9.018;2023-02-25T02:05:11;98014.53;;;3.61;88.42
21240;BME280;10778;48.962;9.018;2023-02-25T02:07:37;98023.50;;;3.68;87.56
21240;BME280;10778;48.962;9.018;2023-02-25T02:10:04;98022.09;;;3.52;89.22
21240;BME280;10778;48.962;9.018;2023-02-25T02:12:48;98023.28;;;3.60;89.31
21240;BME280;10778;48.962;9.018;2023-02-25T02:15:14;98016.78;;;3.54;89.78
21240;BME280;10778;48.962;9.018;2023-02-25T02:17:43;98021.03;;;3.55;90.05
21240;BME280;10778;48.962;9.018;2023-02-25T02:20:18;98017.00;;;3.62;89.35
21240;BME280;10778;48.962;9.018;2023-02-25T02:22:50;98024.94;;;3.49;89.67
21240;BME280;10778;48.962;9.018;2023-02-25T02:36:41;98033.31;;;3.64;90.21
21240;BME280;10778;48.962;9.018;2023-02-25T02:39:38;98036.50;;;3.56;89.44
21240;BME280;10778;48.962;9.018;2023-02-25T02:42:30;98042.09;;;3.52;89.52
21240;BME280;10778;48.962;9.018;2023-02-25T02:45:24;98046.34;;;3.53;88.57
21240;BME280;10778;48.962;9.018;2023-02-25T02:48:02;98043.50;;;3.56;89.29
21240;BME280;10778;48.962;9.018;2023-02-25T02:50:57;98050.09;;;3.49;89.81
21240;BME280;10778;48.962;9.018;2023-02-25T02:53:33;98053.06;;;3.55;89.00
21240;BME280;10778;48.962;9.018;2023-02-25T02:56:04;98048.56;;;3.58;87.54
21240;BME280;10778;48.962;9.018;2023-02-25T02:59:00;98056.50;;;3.45;87.92
21240;BME280;10778;48.962;9.018;2023-02-25T03:01:39;98052.69;;;3.49;87.36
21240;BME280;10778;48.962;9.018;2023-02-25T03:04:10;98063.22;;;3.36;88.11
21240;BME280;10778;48.962;9.018;2023-02-25T03:06:42;98066.53;;;3.38;87.17
21240;BME280;10778;48.962;9.018;2023-02-25T03:09:15;98064.06;;;3.36;87.40
21240;BME280;10778;48.962;9.018;2023-02-25T03:11:43;98064.28;;;3.33;88.48
21240;BME280;10778;48.962;9.018;2023-02-25T03:14:12;98067.34;;;3.27;87.68
21240;BME280;10778;48.962;9.018;2023-02-25T03:16:56;98068.19;;;3.16;88.16
21240;BME280;10778;48.962;9.018;2023-02-25T03:19:31;98071.50;;;3.18;88.10
21240;BME280;10778;48.962;9.018;2023-02-25T03:22:06;98078.91;;;3.11;87.83
21240;BME280;10778;48.962;9.018;2023-02-25T03:27:21;98077.97;;;3.01;89.01
21240;BME280;10778;48.962;9.018;2023-02-25T03:29:50;98081.97;;;2.94;89.04
21240;BME280;10778;48.962;9.018;2023-02-25T03:32:18;98084.31;;;2.86;89.55
21240;BME280;10778;48.962;9.018;2023-02-25T03:34:48;98081.81;;;2.84;89.55
21240;BME280;10778;48.962;9.018;2023-02-25T03:37:28;98077.53;;;2.72;89.88
21240;BME280;10778;48.962;9.018;2023-02-25T03:39:58;98079.88;;;2.63;90.00
21240;BME280;10778;48.962;9.018;2023-02-25T03:42:30;98090.13;;;2.65;88.68
21240;BME280;10778;48.962;9.018;2023-02-25T03:45:00;98082.94;;;2.57;88.31
21240;BME280;10778;48.962;9.018;2023-02-25T03:47:29;98090.81;;;2.55;87.78
21240;BME280;10778;48.962;9.018;2023-02-25T03:50:02;98090.72;;;2.57;87.14
21240;BME280;10778;48.962;9.018;2023-02-25T03:52:31;98090.34;;;2.50;87.72
21240;BME280;10778;48.962;9.018;2023-02-25T03:55:01;98091.38;;;2.48;88.07
21240;BME280;10778;48.962;9.018;2023-02-25T03:57:40;98089.97;;;2.44;88.39
21240;BME280;10778;48.962;9.018;2023-02-25T04:00:12;98102.59;;;2.48;87.28
21240;BME280;10778;48.962;9.018;2023-02-25T04:02:46;98099.06;;;2.49;87.42
21240;BME280;10778;48.962;9.018;2023-02-25T04:05:15;98104.03;;;2.52;87.34
21240;BME280;10778;48.962;9.018;2023-02-25T04:07:42;98101.53;;;2.51;87.61
21240;BME280;10778;48.962;9.018;2023-02-25T04:10:11;98105.94;;;2.62;86.09
21240;BME280;10778;48.962;9.018;2023-02-25T04:12:38;98113.97;;;2.59;86.31
21240;BME280;10778;48.962;9.018;2023-02-25T04:15:04;98118.22;;;2.60;85.89
21240;BME280;10778;48.962;9.018;2023-02-25T04:17:32;98116.09;;;2.65;84.57
21240;BME280;10778;48.962;9.018;2023-02-25T04:19:58;98114.44;;;2.64;85.21
21240;BME280;10778;48.962;9.018;2023-02-25T04:22:24;98111.53;;;2.68;84.24
21240;BME280;10778;48.962;9.018;2023-02-25T04:24:50;98111.09;;;2.75;84.43
21240;BME280;10778;48.962;9.018;2023-02-25T04:27:16;98122.03;;;2.67;83.92
21240;BME280;10778;48.962;9.018;2023-02-25T04:29:43;98122.84;;;2.67;84.71
21240;BME280;10778;48.962;9.018;2023-02-25T04:32:10;98122.75;;;2.69;84.73
21240;BME280;10778;48.962;9.018;2023-02-25T04:34:36;98115.34;;;2.76;83.55
21240;BME280;10778;48.962;9.018;2023-02-25T04:37:03;98122.28;;;2.75;83.44
21240;BME280;10778;48.962;9.018;2023-02-25T04:39:31;98120.63;;;2.74;83.46
21240;BME280;10778;48.962;9.018;2023-02-25T04:41:58;98117.66;;;2.67;83.94
21240;BME280;10778;48.962;9.018;2023-02-25T04:44:24;98125.84;;;2.74;84.28
21240;BME280;10778;48.962;9.018;2023-02-25T04:46:50;98127.16;;;2.80;84.04
21240;BME280;10778;48.962;9.018;2023-02-25T04:49:18;98134.94;;;2.80;83.76
21240;BME280;10778;48.962;9.018;2023-02-25T04:51:45;98127.00;;;2.70;84.98
21240;BME280;10778;48.962;9.018;2023-02-25T04:54:11;98126.06;;;2.71;84.43
21240;BME280;10778;48.962;9.018;2023-02-25T04:56:37;98130.19;;;2.74;85.08
21240;BME280;10778;48.962;9.018;2023-02-25T04:59:05;98130.66;;;2.67;85.77
21240;BME280;10778;48.962;9.018;2023-02-25T05:01:31;98129.84;;;2.67;85.30
21240;BME280;10778;48.962;9.018;2023-02-25T05:04:00;98131.59;;;2.66;85.34
21240;BME280;10778;48.962;9.018;2023-02-25T05:06:27;98138.34;;;2.69;85.15
21240;BME280;10778;48.962;9.018;2023-02-25T05:08:54;98137.81;;;2.64;83.55
21240;BME280;10778;48.962;9.018;2023-02-25T05:11:23;98137.22;;;2.60;82.77
21240;BME280;10778;48.962;9.018;2023-02-25T05:13:50;98135.13;;;2.65;84.22
21240;BME280;10778;48.962;9.018;2023-02-25T05:16:19;98132.44;;;2.67;82.49
21240;BME280;10778;48.962;9.018;2023-02-25T05:18:45;98135.59;;;2.70;82.21
21240;BME280;10778;48.962;9.018;2023-02-25T05:21:18;98131.59;;;2.66;81.39
21240;BME280;10778;48.962;9.018;2023-02-25T05:23:45;98127.28;;;2.54;83.33
21240;BME280;10778;48.962;9.018;2023-02-25T05:26:13;98137.09;;;2.62;83.03
21240;BME280;10778;48.962;9.018;2023-02-25T05:28:40;98129.00;;;2.66;82.42
21240;BME280;10778;48.962;9.018;2023-02-25T05:31:10;98130.78;;;2.66;81.82
21240;BME280;10778;48.962;9.018;2023-02-25T05:33:38;98123.06;;;2.64;81.31
21240;BME280;10778;48.962;9.018;2023-02-25T05:36:05;98120.25;;;2.67;80.48
21240;BME280;10778;48.962;9.018;2023-02-25T05:38:32;98121.28;;;2.65;80.76
21240;BME280;10778;48.962;9.018;2023-02-25T05:40:59;98121.69;;;2.72;81.39
21240;BME280;10778;48.962;9.018;2023-02-25T05:43:25;98117.94;;;2.76;81.17
21240;BME280;10778;48.962;9.018;2023-02-25T05:45:56;98117.66;;;2.67;81.08
21240;BME280;10778;48.962;9.018;2023-02-25T05:48:22;98115.81;;;2.81;79.71
21240;BME280;10778;48.962;9.018;2023-02-25T05:50:49;98113.78;;;2.73;79.55
21240;BME280;10778;48.962;9.018;2023-02-25T05:53:17;98115.44;;;2.74;79.95
21240;BME280;10778;48.962;9.018;2023-02-25T05:55:44;98111.41;;;2.70;78.43
21240;BME280;10778;48.962;9.018;2023-02-25T05:58:10;98115.66;;;2.71;78.74
21240;BME280;10778;48.962;9.018;2023-02-25T06:00:37;98121.91;;;2.68;79.56
21240;BME280;10778;48.962;9.018;2023-02-25T06:03:04;98129.47;;;2.72;79.68
21240;BME280;10778;48.962;9.018;2023-02-25T06:05:30;98138.91;;;2.73;80.50
21240;BME280;10778;48.962;9.018;2023-02-25T06:07:57;98140.69;;;2.72;79.83
21240;BME280;10778;48.962;9.018;2023-02-25T06:10:24;98139.44;;;2.78;79.85
21240;BME280;10778;48.962;9.018;2023-02-25T06:12:51;98149.09;;;2.76;78.97
21240;BME280;10778;48.962;9.018;2023-02-25T06:15:18;98146.50;;;2.76;80.14
21240;BME280;10778;48.962;9.018;2023-02-25T06:17:44;98148.50;;;2.72;79.73
21240;BME280;10778;48.962;9.018;2023-02-25T06:20:10;98152.75;;;2.73;79.27
21240;BME280;10778;48.962;9.018;2023-02-25T06:22:36;98157.94;;;2.73;79.85
21240;BME280;10778;48.962;9.018;2023-02-25T06:25:02;98155.03;;;2.78;79.15
21240;BME280;10778;48.962;9.018;2023-02-25T06:27:28;98148.59;;;2.70;78.72
21240;BME280;10778;48.962;9.018;2023-02-25T06:29:55;98149.81;;;2.78;79.95
21240;BME280;10778;48.962;9.018;2023-02-25T06:32:21;98150.88;;;2.75;80.21
21240;BME280;10778;48.962;9.018;2023-02-25T06:34:47;98152.41;;;2.78;80.52
21240;BME280;10778;48.962;9.018;2023-02-25T06:37:13;98154.31;;;2.76;79.82
21240;BME280;10778;48.962;9.018;2023-02-25T06:39:39;98152.41;;;2.78;80.10
21240;BME280;10778;48.962;9.018;2023-02-25T06:42:08;98149.59;;;2.81;79.51
21240;BME280;10778;48.962;9.018;2023-02-25T06:44:34;98145.34;;;2.80;79.54
21240;BME280;10778;48.962;9.018;2023-02-25T06:47:01;98153.13;;;2.80;79.07
21240;BME280;10778;48.962;9.018;2023-02-25T06:49:28;98157.38;;;2.81;79.27
21240;BME280;10778;48.962;9.018;2023-02-25T06:51:55;98166.84;;;2.82;79.10
21240;BME280;10778;48.962;9.018;2023-02-25T06:54:20;98178.66;;;2.86;79.11
21240;BME280;10778;48.962;9.018;2023-02-25T06:56:46;98186.69;;;2.83;80.12
21240;BME280;10778;48.962;9.018;2023-02-25T06:59:13;98189.03;;;2.86;79.27
21240;BME280;10778;48.962;9.018;2023-02-25T07:01:39;98193.53;;;2.84;80.63
21240;BME280;10778;48.962;9.018;2023-02-25T07:04:05;98195.72;;;2.77;81.34
21240;BME280;10778;48.962;9.018;2023-02-25T07:06:31;98198.72;;;2.84;80.00
21240;BME280;10778;48.962;9.018;2023-02-25T07:08:57;98188.22;;;2.86;77.15
21240;BME280;10778;48.962;9.018;2023-02-25T07:13:49;98187.31;;;2.98;76.73
21240;BME280;10778;48.962;9.018;2023-02-25T07:16:16;98193.72;;;3.05;76.44
21240;BME280;10778;48.962;9.018;2023-02-25T07:18:43;98193.03;;;3.15;77.06
21240;BME280;10778;48.962;9.018;2023-02-25T07:21:10;98192.56;;;3.09;76.40
21240;BME280;10778;48.962;9.018;2023-02-25T07:23:39;98187.25;;;3.11;75.76
21240;BME280;10778;48.962;9.018;2023-02-25T07:26:08;98186.47;;;3.22;75.60
21240;BME280;10778;48.962;9.018;2023-02-25T07:28:34;98182.69;;;3.26;74.71
21240;BME280;10778;48.962;9.018;2023-02-25T07:31:10;98187.31;;;3.34;73.06
21240;BME280;10778;48.962;9.018;2023-02-25T07:33:36;98185.19;;;3.27;74.20
21240;BME280;10778;48.962;9.018;2023-02-25T07:36:02;98172.91;;;3.41;74.75
21240;BME280;10778;48.962;9.018;2023-02-25T07:38:28;98180.50;;;3.44;73.24
21240;BME280;10778;48.962;9.018;2023-02-25T07:40:54;98170.91;;;3.45;72.04
21240;BME280;10778;48.962;9.018;2023-02-25T07:43:21;98170.72;;;3.70;71.26
21240;BME280;10778;48.962;9.018;2023-02-25T07:45:50;98175.69;;;3.74;72.40
21240;BME280;10778;48.962;9.018;2023-02-25T07:48:16;98183.66;;;3.48;72.31
21240;BME280;10778;48.962;9.018;2023-02-25T07:50:42;98179.03;;;3.40;72.41
21240;BME280;10778;48.962;9.018;2023-02-25T07:53:09;98186.00;;;3.28;71.55
21240;BME280;10778;48.962;9.018;2023-02-25T07:55:35;98187.66;;;3.29;71.50
21240;BME280;10778;48.962;9.018;2023-02-25T07:58:01;98181.53;;;3.41;72.13
21240;BME280;10778;48.962;9.018;2023-02-25T08:00:27;98178.94;;;3.41;71.37
21240;BME280;10778;48.962;9.018;2023-02-25T08:02:53;98184.63;;;3.47;71.94
21240;BME280;10778;48.962;9.018;2023-02-25T08:05:19;98178.53;;;3.23;70.82
21240;BME280;10778;48.962;9.018;2023-02-25T08:07:47;98187.44;;;3.44;70.88
21240;BME280;10778;48.962;9.018;2023-02-25T08:10:13;98180.56;;;3.31;70.69
21240;BME280;10778;48.962;9.018;2023-02-25T08:12:39;98177.34;;;3.86;74.54
21240;BME280;10778;48.962;9.018;2023-02-25T08:15:05;98177.81;;;4.03;72.88
21240;BME280;10778;48.962;9.018;2023-02-25T08:17:35;98183.72;;;3.93;70.08
21240;BME280;10778;48.962;9.018;2023-02-25T08:20:00;98185.63;;;3.91;69.63
21240;BME280;10778;48.962;9.018;2023-02-25T08:22:26;98199.69;;;4.00;68.80
21240;BME280;10778;48.962;9.018;2023-02-25T08:24:52;98186.78;;;4.21;69.51
21240;BME280;10778;48.962;9.018;2023-02-25T08:27:18;98190.06;;;4.46;69.62
21240;BME280;10778;48.962;9.018;2023-02-25T08:29:44;98197.06;;;4.23;67.95
21240;BME280;10778;48.962;9.018;2023-02-25T08:32:10;98187.59;;;4.33;67.92
21240;BME280;10778;48.962;9.018;2023-02-25T08:34:36;98183.59;;;4.29;67.93
21240;BME280;10778;48.962;9.018;2023-02-25T08:37:03;98183.44;;;4.19;67.70
21240;BME280;10778;48.962;9.018;2023-02-25T08:39:29;98180.25;;;4.38;69.31
21240;BME280;10778;48.962;9.018;2023-02-25T08:41:55;98173.81;;;4.43;68.56
21240;BME280;10778;48.962;9.018;2023-02-25T08:44:21;98182.84;;;4.27;67.71
21240;BME280;10778;48.962;9.018;2023-02-25T08:46:47;98178.47;;;4.27;68.59
21240;BME280;10778;48.962;9.018;2023-02-25T08:49:14;98180.88;;;3.96;68.89
21240;BME280;10778;48.962;9.018;2023-02-25T08:51:39;98184.78;;;3.91;69.95
21240;BME280;10778;48.962;9.018;2023-02-25T08:54:10;98185.25;;;3.73;70.07
21240;BME280;10778;48.962;9.018;2023-02-25T08:56:37;98192.94;;;3.97;71.27
21240;BME280;10778;48.962;9.018;2023-02-25T08:59:14;98190.69;;;4.16;70.32
21240;BME280;10778;48.962;9.018;2023-02-25T09:01:40;98191.41;;;4.06;70.60
21240;BME280;10778;48.962;9.018;2023-02-25T09:04:18;98190.94;;;4.12;70.89
21240;BME280;10778;48.962;9.018;2023-02-25T09:06:45;98194.59;;;4.21;69.89
21240;BME280;10778;48.962;9.018;2023-02-25T09:09:15;98188.31;;;4.24;68.94
21240;BME280;10778;48.962;9.018;2023-02-25T09:11:42;98184.53;;;4.28;68.86
21240;BME280;10778;48.962;9.018;2023-02-25T09:14:09;98183.06;;;4.47;68.57
21240;BME280;10778;48.962;9.018;2023-02-25T09:16:35;98184.72;;;4.48;67.56
21240;BME280;10778;48.962;9.018;2023-02-25T09:19:02;98181.06;;;4.39;67.03
21240;BME280;10778;48.962;9.018;2023-02-25T09:21:28;98182.34;;;4.45;66.11
21240;BME280;10778;48.962;9.018;2023-02-25T09:23:54;98186.66;;;4.34;64.81
21240;BME280;10778;48.962;9.018;2023-02-25T09:26:21;98182.25;;;4.35;66.40
21240;BME280;10778;48.962;9.018;2023-02-25T09:28:47;98183.34;;;4.32;64.71
21240;BME280;10778;48.962;9.018;2023-02-25T09:31:15;98179.44;;;4.38;65.78
21240;BME280;10778;48.962;9.018;2023-02-25T09:33:41;98177.22;;;4.66;65.46
21240;BME280;10778;48.962;9.018;2023-02-25T09:36:09;98168.94;;;4.61;65.21
21240;BME280;10778;48.962;9.018;2023-02-25T09:38:37;98174.06;;;4.51;63.98
21240;BME280;10778;48.962;9.018;2023-02-25T09:41:21;98170.25;;;4.55;63.99
21240;BME280;10778;48.962;9.018;2023-02-25T09:46:33;98175.97;;;4.81;62.31
21240;BME280;10778;48.962;9.018;2023-02-25T09:49:04;98175.38;;;4.78;62.66
21240;BME280;10778;48.962;9.018;2023-02-25T09:51:37;98176.41;;;4.54;62.43
21240;BME280;10778;48.962;9.018;2023-02-25T09:54:17;98173.31;;;4.60;63.19
21240;BME280;10778;48.962;9.018;2023-02-25T09:56:46;98176.16;;;4.68;62.64
21240;BME280;10778;48.962;9.018;2023-02-25T09:59:15;98181.81;;;4.74;63.42
21240;BME280;10778;48.962;9.018;2023-02-25T10:01:53;98178.84;;;4.78;62.58
21240;BME280;10778;48.962;9.018;2023-02-25T10:04:29;98181.38;;;4.57;62.31
21240;BME280;10778;48.962;9.018;2023-02-25T10:07:03;98188.84;;;4.50;64.13
21240;BME280;10778;48.962;9.018;2023-02-25T10:09:46;98176.25;;;4.67;64.10
21240;BME280;10778;48.962;9.018;2023-02-25T10:12:25;98185.94;;;4.76;65.54
21240;BME280;10778;48.962;9.018;2023-02-25T10:17:53;98184.31;;;4.64;63.23
21240;BME280;10778;48.962;9.018;2023-02-25T10:25:56;98171.97;;;4.77;63.21
21240;BME280;10778;48.962;9.018;2023-02-25T10:28:23;98167.81;;;5.29;62.05
21240;BME280;10778;48.962;9.018;2023-02-25T10:31:07;98165.47;;;5.78;61.50
21240;BME280;10778;48.962;9.018;2023-02-25T10:33:38;98159.75;;;5.94;60.66
21240;BME280;10778;48.962;9.018;2023-02-25T10:38:38;98155.22;;;5.65;61.77
21240;BME280;10778;48.962;9.018;2023-02-25T10:41:07;98158.53;;;5.36;61.53
21240;BME280;10778;48.962;9.018;2023-02-25T10:43:33;98154.50;;;5.53;61.61
21240;BME280;10778;48.962;9.018;2023-02-25T10:46:06;98158.09;;;5.31;62.32
21240;BME280;10778;48.962;9.018;2023-02-25T10:48:35;98154.75;;;4.86;64.63
21240;BME280;10778;48.962;9.018;2023-02-25T10:56:19;98150.81;;;5.34;66.41
21240;BME280;10778;48.962;9.018;2023-02-25T10:59:04;98149.81;;;5.04;65.80
21240;BME280;10778;48.962;9.018;2023-02-25T11:01:40;98155.91;;;4.93;66.46
21240;BME280;10778;48.962;9.018;2023-02-25T11:04:12;98157.22;;;4.66;68.80
21240;BME280;10778;48.962;9.018;2023-02-25T11:06:41;98160.56;;;4.90;69.75
21240;BME280;10778;48.962;9.018;2023-02-25T11:14:35;98155.53;;;5.19;67.55
21240;BME280;10778;48.962;9.018;2023-02-25T11:17:14;98148.69;;;5.39;67.24
21240;BME280;10778;48.962;9.018;2023-02-25T11:19:47;98143.53;;;5.28;67.26
21240;BME280;10778;48.962;9.018;2023-02-25T11:24:41;98136.91;;;5.24;66.25
21240;BME280;10778;48.962;9.018;2023-02-25T11:27:36;98143.31;;;5.20;66.08
21240;BME280;10778;48.962;9.018;2023-02-25T11:32:51;98134.94;;;4.95;65.96
21240;BME280;10778;48.962;9.018;2023-02-25T11:35:23;98136.66;;;5.06;66.81
21240;BME280;10778;48.962;9.018;2023-02-25T11:37:58;98144.41;;;4.96;66.65
21240;BME280;10778;48.962;9.018;2023-02-25T11:40:32;98149.66;;;4.84;67.94
21240;BME280;10778;48.962;9.018;2023-02-25T11:46:11;98146.41;;;4.71;68.07
21240;BME280;10778;48.962;9.018;2023-02-25T11:49:35;98160.84;;;4.75;68.44
21240;BME280;10778;48.962;9.018;2023-02-25T11:52:08;98158.28;;;4.64;69.50
21240;BME280;10778;48.962;9.018;2023-02-25T11:54:45;98153.09;;;4.52;68.75
21240;BME280;10778;48.962;9.018;2023-02-25T11:57:37;98158.19;;;4.54;70.23
21240;BME280;10778;48.962;9.018;2023-02-25T12:05:46;98180.88;;;4.08;76.36
21240;BME280;10778;48.962;9.018;2023-02-25T12:08:52;98185.97;;;3.87;79.16
21240;BME280;10778;48.962;9.018;2023-02-25T12:35:18;98177.03;;;3.32;85.35
21240;BME280;10778;48.962;9.018;2023-02-25T12:46:23;98161.34;;;4.02;82.20
21240;BME280;10778;48.962;9.018;2023-02-25T12:57:41;98143.59;;;4.07;79.70
21240;BME280;10778;48.962;9.018;2023-02-25T13:04:00;98126.56;;;3.92;78.19
21240;BME280;10778;48.962;9.018;2023-02-25T13:20:05;98088.34;;;7.23;64.24
21240;BME280;10778;48.962;9.018;2023-02-25T13:22:57;98098.31;;;6.90;63.71
21240;BME280;10778;48.962;9.018;2023-02-25T13:31:39;98098.41;;;7.28;61.90
21240;BME280;10778;48.962;9.018;2023-02-25T13:39:31;98109.09;;;8.46;59.95
21240;BME280;10778;48.962;9.018;2023-02-25T13:44:40;98101.34;;;6.95;61.77
21240;BME280;10778;48.962;9.018;2023-02-25T13:50:32;98099.78;;;7.22;61.89
21240;BME280;10778;48.962;9.018;2023-02-25T13:53:17;98090.28;;;8.15;60.44
21240;BME280;10778;48.962;9.018;2023-02-25T14:07:15;98096.22;;;6.24;64.39
21240;BME280;10778;48.962;9.018;2023-02-25T14:09:54;98089.56;;;6.01;64.08
21240;BME280;10778;48.962;9.018;2023-02-25T14:15:18;98102.16;;;5.45;64.21
21240;BME280;10778;48.962;9.018;2023-02-25T14:26:39;98091.75;;;5.23;63.79
21240;BME280;10778;48.962;9.018;2023-02-25T14:36:55;98095.06;;;5.04;66.54
21240;BME280;10778;48.962;9.018;2023-02-25T14:43:11;98090.78;;;6.67;59.18
21240;BME280;10778;48.962;9.018;2023-02-25T14:45:46;98084.75;;;7.24;58.32
21240;BME280;10778;48.962;9.018;2023-02-25T14:48:22;98092.06;;;7.30;57.06
21240;BME280;10778;48.962;9.018;2023-02-25T15:02:13;98102.97;;;7.91;55.15
21240;BME280;10778;48.962;9.018;2023-02-25T15:19:50;98129.09;;;5.86;58.66
21240;BME280;10778;48.962;9.018;2023-02-25T15:22:25;98139.31;;;5.58;59.60
21240;BME280;10778;48.962;9.018;2023-02-25T15:27:54;98169.59;;;5.07;70.52
21240;BME280;10778;48.962;9.018;2023-02-25T15:30:26;98179.97;;;5.39;72.46
21240;BME280;10778;48.962;9.018;2023-02-25T15:33:22;98172.00;;;5.62;76.43
21240;BME280;10778;48.962;9.018;2023-02-25T15:35:55;98189.78;;;4.61;78.10
21240;BME280;10778;48.962;9.018;2023-02-25T15:38:45;98198.81;;;4.34;81.26
21240;BME280;10778;48.962;9.018;2023-02-25T15:46:41;98196.16;;;3.20;90.77
21240;BME280;10778;48.962;9.018;2023-02-25T15:51:43;98187.31;;;3.34;91.18
21240;BME280;10778;48.962;9.018;2023-02-25T15:54:10;98178.09;;;3.30;90.17
21240;BME280;10778;48.962;9.018;2023-02-25T15:56:48;98175.88;;;3.48;90.06
21240;BME280;10778;48.962;9.018;2023-02-25T16:04:59;98183.78;;;3.35;91.16
21240;BME280;10778;48.962;9.018;2023-02-25T16:07:38;98182.13;;;3.34;92.12
21240;BME280;10778;48.962;9.018;2023-02-25T16:10:20;98189.06;;;3.22;93.09
21240;BME280;10778;48.962;9.018;2023-02-25T16:12:51;98189.56;;;3.38;92.29
21240;BME280;10778;48.962;9.018;2023-02-25T16:15:31;98194.56;;;3.53;91.85
21240;BME280;10778;48.962;9.018;2023-02-25T16:18:10;98197.25;;;3.40;90.48
21240;BME280;10778;48.962;9.018;2023-02-25T16:20:43;98203.44;;;3.50;91.36
21240;BME280;10778;48.962;9.018;2023-02-25T16:23:13;98200.69;;;3.40;89.58
21240;BME280;10778;48.962;9.018;2023-02-25T16:28:52;98217.88;;;3.19;89.80
21240;BME280;10778;48.962;9.018;2023-02-25T16:31:31;98223.09;;;3.19;88.66
21240;BME280;10778;48.962;9.018;2023-02-25T16:39:23;98223.91;;;3.78;88.87
21240;BME280;10778;48.962;9.018;2023-02-25T16:41:51;98221.84;;;4.61;90.26
21240;BME280;10778;48.962;9.018;2023-02-25T16:44:22;98234.13;;;4.04;82.34
21240;BME280;10778;48.962;9.018;2023-02-25T16:46:52;98238.41;;;3.58;83.46
21240;BME280;10778;48.962;9.018;2023-02-25T16:49:24;98230.88;;;3.19;84.67
21240;BME280;10778;48.962;9.018;2023-02-25T16:51:53;98235.81;;;3.10;84.56
21240;BME280;10778;48.962;9.018;2023-02-25T16:54:31;98237.44;;;3.00;84.57
21240;BME280;10778;48.962;9.018;2023-02-25T16:57:00;98238.13;;;3.02;85.01
21240;BME280;10778;48.962;9.018;2023-02-25T16:59:30;98240.84;;;3.01;85.27
21240;BME280;10778;48.962;9.018;2023-02-25T17:02:00;98248.91;;;2.84;85.96
21240;BME280;10778;48.962;9.018;2023-02-25T17:04:36;98257.75;;;2.82;86.07
21240;BME280;10778;48.962;9.018;2023-02-25T17:07:19;98263.84;;;2.94;85.62